sensor_id;sensor_type;location;lat;lon;timestamp;P1;durP1;ratioP1;P2;durP2;ratioP2
62927;SDS011;51070;52.236;-0.892;2023-04-08T00:00:19;8.80;;;4.60;;
62927;SDS011;51070;52.236;-0.892;2023-04-08T00:02:45;4.80;;;4.00;;
62927;SDS011;51070;52.236;-0.892;2023-04-08T00:05:11;10.70;;;3.90;;
62927;SDS011;51070;52.236;-0.892;2023-04-08T00:07:36;6.20;;;4.10;;
62927;SDS011;51070;52.236;-0.892;2023-04-08T00:10:02;6.10;;;4.20;;
62927;SDS011;51070;52.236;-0.892;2023-04-08T00:12:28;5.90;;;4.40;;
62927;SDS011;51070;52.236;-0.892;2023-04-08T00:14:53;7.50;;;4.00;;
62927;SDS011;51070;52.236;-0.892;2023-04-08T00:17:18;7.10;;;4.40;;
62927;SDS011;51070;52.236;-0.892;2023-04-08T00:19:44;6.30;;;3.80;;
62927;SDS011;51070;52.236;-0.892;2023-04-08T00:22:10;6.00;;;3.90;;
62927;SDS011;51070;52.236;-0.892;2023-04-08T00:24:35;4.70;;;3.60;;
62927;SDS011;51070;52.236;-0.892;2023-04-08T00:27:01;4.80;;;3.90;;
62927;SDS011;51070;52.236;-0.892;2023-04-08T00:29:30;5.80;;;4.20;;
62927;SDS011;51070;52.236;-0.892;2023-04-08T00:31:56;6.30;;;5.00;;
62927;SDS011;51070;52.236;-0.892;2023-04-08T00:34:22;6.20;;;3.80;;
62927;SDS011;51070;52.236;-0.892;2023-04-08T00:36:48;7.80;;;3.90;;
62927;SDS011;51070;52.236;-0.892;2023-04-08T00:39:13;6.50;;;4.50;;
62927;SDS011;51070;52.236;-0.892;2023-04-08T00:41:39;7.20;;;4.40;;
62927;SDS011;51070;52.236;-0.892;2023-04-08T00:44:04;6.00;;;4.10;;
62927;SDS011;51070;52.236;-0.892;2023-04-08T00:46:32;9.50;;;5.30;;
62927;SDS011;51070;52.236;-0.892;2023-04-08T00:49:01;6.30;;;4.40;;
62927;SDS011;51070;52.236;-0.892;2023-04-08T00:51:29;10.00;;;5.40;;
62927;SDS011;51070;52.236;-0.892;2023-04-08T00:54:00;6.90;;;5.70;;
62927;SDS011;51070;52.236;-0.892;2023-04-08T00:56:26;9.60;;;4.80;;
62927;SDS011;51070;52.236;-0.892;2023-04-08T00:58:52;10.60;;;6.70;;
62927;SDS011;51070;52.236;-0.892;2023-04-08T01:02:24;6.60;;;4.40;;
62927;SDS011;51070;52.236;-0.892;2023-04-08T01:04:38;5.80;;;4.70;;
62927;SDS011;51070;52.236;-0.892;2023-04-08T01:07:16;6.00;;;4.20;;
62927;SDS011;51070;52.236;-0.892;2023-04-08T01:09:53;7.50;;;4.90;;
62927;SDS011;51070;52.236;-0.892;2023-04-08T01:12:24;6.10;;;4.40;;
62927;SDS011;51070;52.236;-0.892;2023-04-08T01:14:56;7.70;;;5.10;;
62927;SDS011;51070;52.236;-0.892;2023-04-08T01:17:25;6.90;;;4.40;;
62927;SDS011;51070;52.236;-0.892;2023-04-08T01:19:51;5.60;;;4.40;;
62927;SDS011;51070;52.236;-0.892;2023-04-08T01:25:04;6.70;;;4.50;;
62927;SDS011;51070;52.236;-0.892;2023-04-08T01:27:33;11.90;;;4.80;;
62927;SDS011;51070;52.236;-0.892;2023-04-08T01:30:00;5.50;;;4.30;;
62927;SDS011;51070;52.236;-0.892;2023-04-08T01:32:27;7.20;;;4.30;;
62927;SDS011;51070;52.236;-0.892;2023-04-08T01:34:55;7.30;;;5.20;;
62927;SDS011;51070;52.236;-0.892;2023-04-08T01:37:22;5.90;;;4.10;;
62927;SDS011;51070;52.236;-0.892;2023-04-08T01:39:50;8.00;;;4.20;;
62927;SDS011;51070;52.236;-0.892;2023-04-08T01:42:18;6.90;;;5.50;;
62927;SDS011;51070;52.236;-0.892;2023-04-08T01:44:46;7.00;;;4.50;;
62927;SDS011;51070;52.236;-0.892;2023-04-08T01:47:12;9.40;;;5.30;;
62927;SDS011;51070;52.236;-0.892;2023-04-08T01:49:38;6.80;;;5.20;;
62927;SDS011;51070;52.236;-0.892;2023-04-08T01:52:04;8.50;;;6.00;;
62927;SDS011;51070;52.236;-0.892;2023-04-08T01:54:33;7.80;;;4.50;;
62927;SDS011;51070;52.236;-0.892;2023-04-08T01:56:59;7.40;;;4.70;;
62927;SDS011;51070;52.236;-0.892;2023-04-08T01:59:29;6.30;;;4.60;;
62927;SDS011;51070;52.236;-0.892;2023-04-08T02:01:59;6.00;;;4.00;;
62927;SDS011;51070;52.236;-0.892;2023-04-08T02:04:26;8.10;;;4.50;;
62927;SDS011;51070;52.236;-0.892;2023-04-08T02:06:51;6.60;;;5.00;;
62927;SDS011;51070;52.236;-0.892;2023-04-08T02:09:17;7.40;;;4.70;;
62927;SDS011;51070;52.236;-0.892;2023-04-08T02:11:42;6.70;;;5.20;;
62927;SDS011;51070;52.236;-0.892;2023-04-08T02:14:07;6.50;;;4.60;;
62927;SDS011;51070;52.236;-0.892;2023-04-08T02:16:35;8.20;;;4.80;;
62927;SDS011;51070;52.236;-0.892;2023-04-08T02:19:09;7.50;;;3.80;;
62927;SDS011;51070;52.236;-0.892;2023-04-08T02:21:45;5.30;;;4.30;;
62927;SDS011;51070;52.236;-0.892;2023-04-08T02:24:14;7.00;;;4.40;;
62927;SDS011;51070;52.236;-0.892;2023-04-08T02:26:42;8.10;;;4.20;;
62927;SDS011;51070;52.236;-0.892;2023-04-08T02:29:11;7.90;;;5.50;;
62927;SDS011;51070;52.236;-0.892;2023-04-08T02:31:37;7.20;;;4.50;;
62927;SDS011;51070;52.236;-0.892;2023-04-08T02:34:11;7.20;;;5.30;;
62927;SDS011;51070;52.236;-0.892;2023-04-08T02:36:38;7.20;;;4.20;;
62927;SDS011;51070;52.236;-0.892;2023-04-08T02:39:05;7.40;;;4.60;;
62927;SDS011;51070;52.236;-0.892;2023-04-08T02:41:31;7.20;;;4.30;;
62927;SDS011;51070;52.236;-0.892;2023-04-08T02:43:57;5.20;;;3.80;;
62927;SDS011;51070;52.236;-0.892;2023-04-08T02:46:22;6.30;;;4.50;;
62927;SDS011;51070;52.236;-0.892;2023-04-08T02:48:48;9.30;;;5.20;;
62927;SDS011;51070;52.236;-0.892;2023-04-08T02:51:15;7.20;;;5.00;;
62927;SDS011;51070;52.236;-0.892;2023-04-08T02:53:40;6.10;;;4.90;;
62927;SDS011;51070;52.236;-0.892;2023-04-08T02:56:09;8.60;;;5.70;;
62927;SDS011;51070;52.236;-0.892;2023-04-08T02:58:35;8.40;;;5.90;;
62927;SDS011;51070;52.236;-0.892;2023-04-08T03:01:00;8.20;;;5.90;;
62927;SDS011;51070;52.236;-0.892;2023-04-08T03:03:25;12.80;;;6.40;;
62927;SDS011;51070;52.236;-0.892;2023-04-08T03:05:55;12.60;;;7.20;;
62927;SDS011;51070;52.236;-0.892;2023-04-08T03:08:21;11.10;;;6.90;;
62927;SDS011;51070;52.236;-0.892;2023-04-08T03:10:47;8.30;;;5.70;;
62927;SDS011;51070;52.236;-0.892;2023-04-08T03:13:14;7.30;;;5.70;;
62927;SDS011;51070;52.236;-0.892;2023-04-08T03:15:40;11.30;;;6.30;;
62927;SDS011;51070;52.236;-0.892;2023-04-08T03:18:05;8.70;;;5.70;;
62927;SDS011;51070;52.236;-0.892;2023-04-08T03:20:31;9.50;;;6.10;;
62927;SDS011;51070;52.236;-0.892;2023-04-08T03:22:57;10.40;;;6.00;;
62927;SDS011;51070;52.236;-0.892;2023-04-08T03:25:22;11.20;;;6.40;;
62927;SDS011;51070;52.236;-0.892;2023-04-08T03:27:48;12.80;;;5.50;;
62927;SDS011;51070;52.236;-0.892;2023-04-08T03:30:13;8.90;;;5.00;;
62927;SDS011;51070;52.236;-0.892;2023-04-08T03:32:38;8.30;;;4.80;;
62927;SDS011;51070;52.236;-0.892;2023-04-08T03:35:04;8.50;;;5.30;;
62927;SDS011;51070;52.236;-0.892;2023-04-08T03:37:30;8.00;;;5.20;;
62927;SDS011;51070;52.236;-0.892;2023-04-08T03:39:56;6.40;;;4.90;;
62927;SDS011;51070;52.236;-0.892;2023-04-08T03:42:22;10.70;;;5.80;;
62927;SDS011;51070;52.236;-0.892;2023-04-08T03:44:48;8.70;;;5.90;;
62927;SDS011;51070;52.236;-0.892;2023-04-08T03:47:13;11.60;;;6.40;;
62927;SDS011;51070;52.236;-0.892;2023-04-08T03:49:39;8.00;;;5.70;;
62927;SDS011;51070;52.236;-0.892;2023-04-08T03:52:04;11.60;;;7.00;;
62927;SDS011;51070;52.236;-0.892;2023-04-08T03:54:31;7.90;;;5.80;;
62927;SDS011;51070;52.236;-0.892;2023-04-08T03:56:56;10.50;;;5.70;;
62927;SDS011;51070;52.236;-0.892;2023-04-08T03:59:21;10.40;;;6.80;;
62927;SDS011;51070;52.236;-0.892;2023-04-08T04:01:47;9.60;;;6.90;;
62927;SDS011;51070;52.236;-0.892;2023-04-08T04:04:13;8.90;;;6.70;;
62927;SDS011;51070;52.236;-0.892;2023-04-08T04:06:38;10.70;;;7.00;;
62927;SDS011;51070;52.236;-0.892;2023-04-08T04:09:04;8.90;;;5.80;;
62927;SDS011;51070;52.236;-0.892;2023-04-08T04:11:30;12.00;;;7.10;;
62927;SDS011;51070;52.236;-0.892;2023-04-08T04:13:55;9.30;;;6.20;;
62927;SDS011;51070;52.236;-0.892;2023-04-08T04:16:20;7.50;;;5.60;;
62927;SDS011;51070;52.236;-0.892;2023-04-08T04:18:46;10.00;;;5.80;;
62927;SDS011;51070;52.236;-0.892;2023-04-08T04:21:11;9.20;;;6.20;;
62927;SDS011;51070;52.236;-0.892;2023-04-08T04:23:36;9.00;;;5.50;;
62927;SDS011;51070;52.236;-0.892;2023-04-08T04:26:06;7.60;;;5.40;;
62927;SDS011;51070;52.236;-0.892;2023-04-08T04:28:33;7.60;;;5.10;;
62927;SDS011;51070;52.236;-0.892;2023-04-08T04:30:59;8.50;;;6.40;;
62927;SDS011;51070;52.236;-0.892;2023-04-08T04:33:24;9.00;;;6.70;;
62927;SDS011;51070;52.236;-0.892;2023-04-08T04:35:49;11.50;;;7.20;;
62927;SDS011;51070;52.236;-0.892;2023-04-08T04:38:15;11.20;;;6.60;;
62927;SDS011;51070;52.236;-0.892;2023-04-08T04:40:40;10.90;;;6.50;;
62927;SDS011;51070;52.236;-0.892;2023-04-08T04:43:06;12.70;;;6.10;;
62927;SDS011;51070;52.236;-0.892;2023-04-08T04:45:31;9.70;;;6.10;;
62927;SDS011;51070;52.236;-0.892;2023-04-08T04:47:56;9.80;;;5.40;;
62927;SDS011;51070;52.236;-0.892;2023-04-08T04:50:22;8.80;;;5.00;;
62927;SDS011;51070;52.236;-0.892;2023-04-08T04:52:48;11.10;;;6.10;;
62927;SDS011;51070;52.236;-0.892;2023-04-08T04:55:13;9.00;;;5.50;;
62927;SDS011;51070;52.236;-0.892;2023-04-08T04:57:40;9.90;;;5.80;;
62927;SDS011;51070;52.236;-0.892;2023-04-08T05:00:06;8.80;;;5.70;;
62927;SDS011;51070;52.236;-0.892;2023-04-08T05:02:32;6.80;;;4.80;;
62927;SDS011;51070;52.236;-0.892;2023-04-08T05:04:58;10.60;;;5.90;;
62927;SDS011;51070;52.236;-0.892;2023-04-08T05:07:23;6.60;;;4.50;;
62927;SDS011;51070;52.236;-0.892;2023-04-08T05:09:48;8.30;;;5.50;;
62927;SDS011;51070;52.236;-0.892;2023-04-08T05:12:14;9.60;;;5.90;;
62927;SDS011;51070;52.236;-0.892;2023-04-08T05:14:40;10.30;;;6.30;;
62927;SDS011;51070;52.236;-0.892;2023-04-08T05:17:06;9.00;;;6.00;;
62927;SDS011;51070;52.236;-0.892;2023-04-08T05:19:31;14.60;;;6.90;;
62927;SDS011;51070;52.236;-0.892;2023-04-08T05:21:57;12.70;;;7.70;;
62927;SDS011;51070;52.236;-0.892;2023-04-08T05:24:22;9.30;;;6.60;;
62927;SDS011;51070;52.236;-0.892;2023-04-08T05:26:48;9.40;;;6.20;;
62927;SDS011;51070;52.236;-0.892;2023-04-08T05:29:17;11.10;;;6.60;;
62927;SDS011;51070;52.236;-0.892;2023-04-08T05:31:43;10.50;;;6.20;;
62927;SDS011;51070;52.236;-0.892;2023-04-08T05:34:09;13.00;;;8.30;;
62927;SDS011;51070;52.236;-0.892;2023-04-08T05:36:35;20.70;;;10.50;;
62927;SDS011;51070;52.236;-0.892;2023-04-08T05:39:01;17.40;;;9.80;;
62927;SDS011;51070;52.236;-0.892;2023-04-08T05:41:27;14.60;;;8.60;;
62927;SDS011;51070;52.236;-0.892;2023-04-08T05:43:52;20.20;;;10.70;;
62927;SDS011;51070;52.236;-0.892;2023-04-08T05:46:18;13.30;;;7.70;;
62927;SDS011;51070;52.236;-0.892;2023-04-08T05:48:43;10.50;;;6.20;;
62927;SDS011;51070;52.236;-0.892;2023-04-08T05:51:14;17.30;;;9.10;;
62927;SDS011;51070;52.236;-0.892;2023-04-08T05:53:42;14.40;;;7.60;;
62927;SDS011;51070;52.236;-0.892;2023-04-08T05:56:09;13.70;;;7.00;;
62927;SDS011;51070;52.236;-0.892;2023-04-08T05:58:35;13.70;;;8.40;;
62927;SDS011;51070;52.236;-0.892;2023-04-08T06:01:00;14.90;;;8.10;;
62927;SDS011;51070;52.236;-0.892;2023-04-08T06:03:25;17.40;;;8.40;;
62927;SDS011;51070;52.236;-0.892;2023-04-08T06:05:51;19.40;;;10.20;;
62927;SDS011;51070;52.236;-0.892;2023-04-08T06:08:16;14.40;;;6.90;;
62927;SDS011;51070;52.236;-0.892;2023-04-08T06:10:51;15.30;;;8.90;;
62927;SDS011;51070;52.236;-0.892;2023-04-08T06:13:16;15.10;;;9.30;;
62927;SDS011;51070;52.236;-0.892;2023-04-08T06:15:42;20.40;;;10.10;;
62927;SDS011;51070;52.236;-0.892;2023-04-08T06:18:07;17.30;;;7.80;;
62927;SDS011;51070;52.236;-0.892;2023-04-08T06:20:34;15.30;;;9.00;;
62927;SDS011;51070;52.236;-0.892;2023-04-08T06:23:00;16.00;;;8.80;;
62927;SDS011;51070;52.236;-0.892;2023-04-08T06:25:25;14.60;;;8.00;;
62927;SDS011;51070;52.236;-0.892;2023-04-08T06:27:51;13.60;;;7.20;;
62927;SDS011;51070;52.236;-0.892;2023-04-08T06:30:17;13.30;;;8.50;;
62927;SDS011;51070;52.236;-0.892;2023-04-08T06:32:42;14.80;;;8.10;;
62927;SDS011;51070;52.236;-0.892;2023-04-08T06:35:07;13.90;;;8.60;;
62927;SDS011;51070;52.236;-0.892;2023-04-08T06:37:33;10.80;;;7.20;;
62927;SDS011;51070;52.236;-0.892;2023-04-08T06:40:03;16.20;;;9.70;;
62927;SDS011;51070;52.236;-0.892;2023-04-08T06:42:30;14.50;;;9.70;;
62927;SDS011;51070;52.236;-0.892;2023-04-08T06:44:56;13.00;;;9.00;;
62927;SDS011;51070;52.236;-0.892;2023-04-08T06:47:22;14.00;;;9.20;;
62927;SDS011;51070;52.236;-0.892;2023-04-08T06:49:47;15.10;;;9.80;;
62927;SDS011;51070;52.236;-0.892;2023-04-08T06:52:13;13.10;;;7.80;;
62927;SDS011;51070;52.236;-0.892;2023-04-08T06:54:38;17.60;;;10.10;;
62927;SDS011;51070;52.236;-0.892;2023-04-08T06:57:04;15.50;;;9.60;;
62927;SDS011;51070;52.236;-0.892;2023-04-08T06:59:29;13.60;;;8.30;;
62927;SDS011;51070;52.236;-0.892;2023-04-08T07:01:55;14.80;;;9.50;;
62927;SDS011;51070;52.236;-0.892;2023-04-08T07:04:20;15.20;;;9.30;;
62927;SDS011;51070;52.236;-0.892;2023-04-08T07:06:45;15.50;;;8.50;;
62927;SDS011;51070;52.236;-0.892;2023-04-08T07:09:11;14.20;;;8.90;;
62927;SDS011;51070;52.236;-0.892;2023-04-08T07:11:36;13.40;;;7.80;;
62927;SDS011;51070;52.236;-0.892;2023-04-08T07:14:02;13.40;;;8.10;;
62927;SDS011;51070;52.236;-0.892;2023-04-08T07:16:27;10.20;;;6.30;;
62927;SDS011;51070;52.236;-0.892;2023-04-08T07:18:52;12.90;;;9.30;;
62927;SDS011;51070;52.236;-0.892;2023-04-08T07:21:18;14.20;;;9.40;;
62927;SDS011;51070;52.236;-0.892;2023-04-08T07:23:43;10.50;;;7.40;;
62927;SDS011;51070;52.236;-0.892;2023-04-08T07:26:08;13.00;;;8.30;;
62927;SDS011;51070;52.236;-0.892;2023-04-08T07:28:34;14.60;;;9.20;;
62927;SDS011;51070;52.236;-0.892;2023-04-08T07:33:42;14.80;;;9.50;;
62927;SDS011;51070;52.236;-0.892;2023-04-08T07:36:08;16.00;;;10.20;;
62927;SDS011;51070;52.236;-0.892;2023-04-08T07:38:35;14.00;;;9.30;;
62927;SDS011;51070;52.236;-0.892;2023-04-08T07:41:01;15.80;;;10.10;;
62927;SDS011;51070;52.236;-0.892;2023-04-08T07:43:26;12.90;;;8.30;;
62927;SDS011;51070;52.236;-0.892;2023-04-08T07:45:51;15.50;;;9.80;;
62927;SDS011;51070;52.236;-0.892;2023-04-08T07:48:17;15.80;;;9.20;;
62927;SDS011;51070;52.236;-0.892;2023-04-08T07:50:42;14.60;;;9.00;;
62927;SDS011;51070;52.236;-0.892;2023-04-08T07:53:09;15.00;;;9.70;;
62927;SDS011;51070;52.236;-0.892;2023-04-08T07:55:35;17.10;;;10.70;;
62927;SDS011;51070;52.236;-0.892;2023-04-08T07:58:01;15.30;;;9.20;;
62927;SDS011;51070;52.236;-0.892;2023-04-08T08:00:26;15.90;;;10.00;;
62927;SDS011;51070;52.236;-0.892;2023-04-08T08:02:54;18.90;;;10.20;;
62927;SDS011;51070;52.236;-0.892;2023-04-08T08:05:20;18.50;;;11.30;;
62927;SDS011;51070;52.236;-0.892;2023-04-08T08:07:46;17.40;;;10.60;;
62927;SDS011;51070;52.236;-0.892;2023-04-08T08:10:11;16.70;;;10.50;;
62927;SDS011;51070;52.236;-0.892;2023-04-08T08:12:36;15.70;;;10.00;;
62927;SDS011;51070;52.236;-0.892;2023-04-08T08:15:02;16.30;;;10.20;;
62927;SDS011;51070;52.236;-0.892;2023-04-08T08:17:28;18.50;;;11.80;;
62927;SDS011;51070;52.236;-0.892;2023-04-08T08:19:55;16.20;;;10.30;;
62927;SDS011;51070;52.236;-0.892;2023-04-08T08:22:21;11.60;;;8.00;;
62927;SDS011;51070;52.236;-0.892;2023-04-08T08:24:46;14.80;;;9.50;;
62927;SDS011;51070;52.236;-0.892;2023-04-08T08:27:12;16.60;;;11.20;;
62927;SDS011;51070;52.236;-0.892;2023-04-08T08:29:37;13.50;;;8.90;;
62927;SDS011;51070;52.236;-0.892;2023-04-08T08:32:03;12.50;;;9.10;;
62927;SDS011;51070;52.236;-0.892;2023-04-08T08:34:29;15.00;;;9.90;;
62927;SDS011;51070;52.236;-0.892;2023-04-08T08:36:54;14.30;;;9.60;;
62927;SDS011;51070;52.236;-0.892;2023-04-08T08:39:20;12.90;;;8.60;;
62927;SDS011;51070;52.236;-0.892;2023-04-08T08:41:46;13.90;;;10.00;;
62927;SDS011;51070;52.236;-0.892;2023-04-08T08:44:11;14.50;;;10.40;;
62927;SDS011;51070;52.236;-0.892;2023-04-08T08:46:41;14.90;;;10.40;;
62927;SDS011;51070;52.236;-0.892;2023-04-08T08:49:08;13.30;;;9.20;;
62927;SDS011;51070;52.236;-0.892;2023-04-08T08:51:34;15.30;;;10.20;;
62927;SDS011;51070;52.236;-0.892;2023-04-08T08:54:03;14.00;;;9.30;;
62927;SDS011;51070;52.236;-0.892;2023-04-08T08:58:54;12.90;;;8.70;;
62927;SDS011;51070;52.236;-0.892;2023-04-08T09:01:38;15.20;;;10.30;;
62927;SDS011;51070;52.236;-0.892;2023-04-08T09:04:11;13.20;;;9.50;;
62927;SDS011;51070;52.236;-0.892;2023-04-08T09:06:40;14.70;;;9.30;;
62927;SDS011;51070;52.236;-0.892;2023-04-08T09:09:06;15.10;;;9.90;;
62927;SDS011;51070;52.236;-0.892;2023-04-08T09:11:34;13.20;;;9.50;;
62927;SDS011;51070;52.236;-0.892;2023-04-08T09:14:02;14.40;;;10.10;;
62927;SDS011;51070;52.236;-0.892;2023-04-08T09:16:28;14.90;;;10.20;;
62927;SDS011;51070;52.236;-0.892;2023-04-08T09:18:57;15.40;;;10.80;;
62927;SDS011;51070;52.236;-0.892;2023-04-08T09:21:33;17.90;;;11.90;;
62927;SDS011;51070;52.236;-0.892;2023-04-08T09:23:59;13.50;;;9.00;;
62927;SDS011;51070;52.236;-0.892;2023-04-08T09:26:25;15.90;;;10.80;;
62927;SDS011;51070;52.236;-0.892;2023-04-08T09:31:27;14.40;;;10.20;;
62927;SDS011;51070;52.236;-0.892;2023-04-08T09:33:55;18.40;;;11.00;;
62927;SDS011;51070;52.236;-0.892;2023-04-08T09:36:26;13.40;;;10.00;;
62927;SDS011;51070;52.236;-0.892;2023-04-08T09:38:53;13.40;;;9.90;;
62927;SDS011;51070;52.236;-0.892;2023-04-08T09:41:19;14.50;;;10.70;;
62927;SDS011;51070;52.236;-0.892;2023-04-08T09:46:24;16.80;;;11.60;;
62927;SDS011;51070;52.236;-0.892;2023-04-08T09:49:01;13.60;;;10.60;;
62927;SDS011;51070;52.236;-0.892;2023-04-08T09:51:41;15.00;;;11.30;;
62927;SDS011;51070;52.236;-0.892;2023-04-08T09:54:13;12.50;;;10.80;;
62927;SDS011;51070;52.236;-0.892;2023-04-08T09:56:46;13.60;;;10.70;;
62927;SDS011;51070;52.236;-0.892;2023-04-08T09:59:17;13.70;;;11.10;;
62927;SDS011;51070;52.236;-0.892;2023-04-08T10:01:51;13.50;;;10.90;;
62927;SDS011;51070;52.236;-0.892;2023-04-08T10:04:19;11.80;;;9.70;;
62927;SDS011;51070;52.236;-0.892;2023-04-08T10:06:57;12.00;;;10.10;;
62927;SDS011;51070;52.236;-0.892;2023-04-08T10:09:28;10.20;;;8.60;;
62927;SDS011;51070;52.236;-0.892;2023-04-08T10:11:54;10.20;;;9.20;;
62927;SDS011;51070;52.236;-0.892;2023-04-08T10:14:20;9.20;;;8.10;;
62927;SDS011;51070;52.236;-0.892;2023-04-08T10:16:46;10.50;;;8.70;;
62927;SDS011;51070;52.236;-0.892;2023-04-08T10:27:38;11.30;;;8.00;;
62927;SDS011;51070;52.236;-0.892;2023-04-08T10:32:55;8.70;;;7.20;;
62927;SDS011;51070;52.236;-0.892;2023-04-08T10:35:28;8.90;;;6.90;;
62927;SDS011;51070;52.236;-0.892;2023-04-08T10:37:54;9.20;;;8.20;;
62927;SDS011;51070;52.236;-0.892;2023-04-08T10:40:20;9.70;;;8.10;;
62927;SDS011;51070;52.236;-0.892;2023-04-08T10:42:45;9.10;;;7.50;;
62927;SDS011;51070;52.236;-0.892;2023-04-08T10:45:15;8.20;;;7.30;;
62927;SDS011;51070;52.236;-0.892;2023-04-08T10:47:42;8.30;;;7.00;;
62927;SDS011;51070;52.236;-0.892;2023-04-08T10:50:17;8.20;;;6.90;;
62927;SDS011;51070;52.236;-0.892;2023-04-08T10:52:51;9.20;;;7.50;;
62927;SDS011;51070;52.236;-0.892;2023-04-08T10:55:24;8.30;;;6.40;;
62927;SDS011;51070;52.236;-0.892;2023-04-08T10:57:51;8.80;;;5.80;;
62927;SDS011;51070;52.236;-0.892;2023-04-08T11:00:17;6.50;;;5.70;;
62927;SDS011;51070;52.236;-0.892;2023-04-08T11:02:43;5.80;;;4.20;;
62927;SDS011;51070;52.236;-0.892;2023-04-08T11:05:09;4.20;;;3.60;;
62927;SDS011;51070;52.236;-0.892;2023-04-08T11:07:41;7.50;;;5.60;;
62927;SDS011;51070;52.236;-0.892;2023-04-08T11:10:07;9.50;;;7.50;;
62927;SDS011;51070;52.236;-0.892;2023-04-08T11:12:33;9.50;;;7.30;;
62927;SDS011;51070;52.236;-0.892;2023-04-08T11:15:02;9.00;;;6.60;;
62927;SDS011;51070;52.236;-0.892;2023-04-08T11:17:28;11.10;;;6.90;;
62927;SDS011;51070;52.236;-0.892;2023-04-08T11:19:54;8.00;;;6.10;;
62927;SDS011;51070;52.236;-0.892;2023-04-08T11:22:21;6.80;;;5.20;;
62927;SDS011;51070;52.236;-0.892;2023-04-08T11:24:47;6.80;;;4.80;;
62927;SDS011;51070;52.236;-0.892;2023-04-08T11:27:13;7.70;;;5.30;;
62927;SDS011;51070;52.236;-0.892;2023-04-08T11:29:40;8.30;;;5.40;;
62927;SDS011;51070;52.236;-0.892;2023-04-08T11:32:06;5.70;;;4.20;;
62927;SDS011;51070;52.236;-0.892;2023-04-08T11:34:33;6.30;;;4.60;;
62927;SDS011;51070;52.236;-0.892;2023-04-08T11:37:03;7.50;;;5.00;;
62927;SDS011;51070;52.236;-0.892;2023-04-08T11:39:28;6.70;;;5.20;;
62927;SDS011;51070;52.236;-0.892;2023-04-08T11:41:53;8.80;;;4.50;;
62927;SDS011;51070;52.236;-0.892;2023-04-08T11:44:19;5.60;;;4.20;;
62927;SDS011;51070;52.236;-0.892;2023-04-08T11:46:54;6.50;;;4.30;;
62927;SDS011;51070;52.236;-0.892;2023-04-08T11:49:21;7.40;;;4.80;;
62927;SDS011;51070;52.236;-0.892;2023-04-08T11:51:57;7.30;;;5.30;;
62927;SDS011;51070;52.236;-0.892;2023-04-08T11:54:27;8.50;;;4.90;;
62927;SDS011;51070;52.236;-0.892;2023-04-08T11:56:53;8.40;;;6.30;;
62927;SDS011;51070;52.236;-0.892;2023-04-08T11:59:18;8.70;;;5.40;;
62927;SDS011;51070;52.236;-0.892;2023-04-08T12:01:43;8.60;;;5.40;;
62927;SDS011;51070;52.236;-0.892;2023-04-08T12:04:09;6.40;;;5.10;;
62927;SDS011;51070;52.236;-0.892;2023-04-08T12:06:35;8.80;;;5.10;;
62927;SDS011;51070;52.236;-0.892;2023-04-08T12:09:00;5.60;;;4.10;;
62927;SDS011;51070;52.236;-0.892;2023-04-08T12:11:26;7.60;;;4.10;;
62927;SDS011;51070;52.236;-0.892;2023-04-08T12:13:51;6.00;;;3.60;;
62927;SDS011;51070;52.236;-0.892;2023-04-08T12:16:17;5.50;;;3.50;;
62927;SDS011;51070;52.236;-0.892;2023-04-08T12:18:44;7.80;;;3.80;;
62927;SDS011;51070;52.236;-0.892;2023-04-08T12:21:10;6.00;;;3.50;;
62927;SDS011;51070;52.236;-0.892;2023-04-08T12:23:36;3.90;;;3.00;;
62927;SDS011;51070;52.236;-0.892;2023-04-08T12:26:02;6.30;;;3.20;;
62927;SDS011;51070;52.236;-0.892;2023-04-08T12:28:28;5.10;;;3.30;;
62927;SDS011;51070;52.236;-0.892;2023-04-08T12:30:53;7.70;;;3.40;;
62927;SDS011;51070;52.236;-0.892;2023-04-08T12:33:19;5.60;;;3.30;;
62927;SDS011;51070;52.236;-0.892;2023-04-08T12:35:45;5.00;;;3.40;;
62927;SDS011;51070;52.236;-0.892;2023-04-08T12:38:10;5.70;;;3.20;;
62927;SDS011;51070;52.236;-0.892;2023-04-08T12:40:36;5.40;;;3.50;;
62927;SDS011;51070;52.236;-0.892;2023-04-08T12:43:02;5.40;;;3.60;;
62927;SDS011;51070;52.236;-0.892;2023-04-08T12:45:27;4.90;;;3.60;;
62927;SDS011;51070;52.236;-0.892;2023-04-08T12:47:52;4.90;;;3.40;;
62927;SDS011;51070;52.236;-0.892;2023-04-08T12:50:18;7.30;;;3.70;;
62927;SDS011;51070;52.236;-0.892;2023-04-08T12:52:43;5.60;;;2.70;;
62927;SDS011;51070;52.236;-0.892;2023-04-08T12:55:09;3.20;;;2.10;;
62927;SDS011;51070;52.236;-0.892;2023-04-08T12:57:34;5.90;;;3.40;;
62927;SDS011;51070;52.236;-0.892;2023-04-08T13:00:00;4.80;;;3.10;;
62927;SDS011;51070;52.236;-0.892;2023-04-08T13:02:25;3.90;;;3.00;;
62927;SDS011;51070;52.236;-0.892;2023-04-08T13:04:51;3.90;;;2.80;;
62927;SDS011;51070;52.236;-0.892;2023-04-08T13:07:18;4.50;;;3.10;;
62927;SDS011;51070;52.236;-0.892;2023-04-08T13:09:43;3.90;;;2.40;;
62927;SDS011;51070;52.236;-0.892;2023-04-08T13:12:09;5.20;;;2.90;;
62927;SDS011;51070;52.236;-0.892;2023-04-08T13:14:36;5.50;;;2.70;;
62927;SDS011;51070;52.236;-0.892;2023-04-08T13:17:02;6.40;;;3.30;;
62927;SDS011;51070;52.236;-0.892;2023-04-08T13:19:28;4.40;;;2.50;;
62927;SDS011;51070;52.236;-0.892;2023-04-08T13:21:53;4.60;;;2.70;;
62927;SDS011;51070;52.236;-0.892;2023-04-08T13:24:19;4.90;;;2.50;;
62927;SDS011;51070;52.236;-0.892;2023-04-08T13:26:44;5.00;;;2.90;;
62927;SDS011;51070;52.236;-0.892;2023-04-08T13:29:10;3.60;;;2.50;;
62927;SDS011;51070;52.236;-0.892;2023-04-08T13:31:35;5.10;;;3.40;;
62927;SDS011;51070;52.236;-0.892;2023-04-08T13:34:01;4.90;;;3.00;;
62927;SDS011;51070;52.236;-0.892;2023-04-08T13:36:26;4.40;;;3.40;;
62927;SDS011;51070;52.236;-0.892;2023-04-08T13:38:52;3.70;;;2.80;;
62927;SDS011;51070;52.236;-0.892;2023-04-08T13:41:18;4.70;;;2.70;;
62927;SDS011;51070;52.236;-0.892;2023-04-08T13:43:45;6.10;;;3.30;;
62927;SDS011;51070;52.236;-0.892;2023-04-08T13:46:11;4.80;;;3.60;;
62927;SDS011;51070;52.236;-0.892;2023-04-08T13:48:36;5.50;;;3.10;;
62927;SDS011;51070;52.236;-0.892;2023-04-08T13:51:02;4.40;;;2.80;;
62927;SDS011;51070;52.236;-0.892;2023-04-08T13:53:27;4.70;;;3.00;;
62927;SDS011;51070;52.236;-0.892;2023-04-08T13:55:53;6.10;;;3.20;;
62927;SDS011;51070;52.236;-0.892;2023-04-08T13:58:20;6.20;;;3.50;;
62927;SDS011;51070;52.236;-0.892;2023-04-08T14:00:48;4.80;;;3.20;;
62927;SDS011;51070;52.236;-0.892;2023-04-08T14:03:15;3.80;;;3.00;;
62927;SDS011;51070;52.236;-0.892;2023-04-08T14:05:41;5.90;;;3.80;;
62927;SDS011;51070;52.236;-0.892;2023-04-08T14:08:07;6.30;;;3.30;;
62927;SDS011;51070;52.236;-0.892;2023-04-08T14:10:33;5.40;;;3.80;;
62927;SDS011;51070;52.236;-0.892;2023-04-08T14:12:58;4.20;;;3.10;;
62927;SDS011;51070;52.236;-0.892;2023-04-08T14:15:24;4.90;;;3.50;;
62927;SDS011;51070;52.236;-0.892;2023-04-08T14:17:49;6.70;;;3.80;;
62927;SDS011;51070;52.236;-0.892;2023-04-08T14:20:15;4.30;;;3.10;;
62927;SDS011;51070;52.236;-0.892;2023-04-08T14:22:41;8.30;;;3.60;;
62927;SDS011;51070;52.236;-0.892;2023-04-08T14:25:07;9.00;;;3.70;;
62927;SDS011;51070;52.236;-0.892;2023-04-08T14:27:33;5.10;;;3.30;;
62927;SDS011;51070;52.236;-0.892;2023-04-08T14:29:58;6.20;;;3.40;;
62927;SDS011;51070;52.236;-0.892;2023-04-08T14:32:24;7.20;;;3.80;;
62927;SDS011;51070;52.236;-0.892;2023-04-08T14:34:49;5.30;;;3.70;;
62927;SDS011;51070;52.236;-0.892;2023-04-08T14:37:14;4.80;;;3.60;;
62927;SDS011;51070;52.236;-0.892;2023-04-08T14:39:42;5.40;;;3.70;;
62927;SDS011;51070;52.236;-0.892;2023-04-08T14:42:08;4.50;;;3.40;;
62927;SDS011;51070;52.236;-0.892;2023-04-08T14:44:33;5.10;;;2.90;;
62927;SDS011;51070;52.236;-0.892;2023-04-08T14:46:59;6.40;;;3.50;;
62927;SDS011;51070;52.236;-0.892;2023-04-08T14:49:24;4.80;;;3.20;;